Time;durP1;ratioP1;P1;durP2;ratioP2;P2;SDS_P1;SDS_P2;PMS_P1;PMS_P2;Temp;Humidity;BMP_temperature;BMP_pressure;BME280_temperature;BME280_humidity;BME280_pressure;Samples;Min_cycle;Max_cycle;Signal;HPM_P1;HPM_P2
2022/07/25 00:01:32;;;;;;;16.27;15.00;;;22.90;99.90;;;;;;5012965;28;20648;-68
2022/07/25 00:03:58;;;;;;;16.43;15.13;;;22.90;99.90;;;;;;5012961;28;20546;-67
2022/07/25 00:06:23;;;;;;;17.27;15.77;;;22.80;99.90;;;;;;5012946;28;20567;-68
2022/07/25 00:08:49;;;;;;;17.70;16.30;;;22.80;99.90;;;;;;5012101;28;20195;-67
2022/07/25 00:11:14;;;;;;;17.17;15.70;;;22.80;99.90;;;;;;5012855;28;20178;-67
2022/07/25 00:13:40;;;;;;;17.47;16.13;;;22.80;99.90;;;;;;5012725;28;20209;-68
2022/07/25 00:16:05;;;;;;;15.77;14.67;;;22.80;99.90;;;;;;5012759;28;20163;-67
2022/07/25 00:18:31;;;;;;;16.63;15.30;;;22.80;99.90;;;;;;5012108;28;20302;-66
2022/07/25 00:20:57;;;;;;;15.40;14.30;;;22.70;99.90;;;;;;5012716;28;20237;-68
2022/07/25 00:23:23;;;;;;;16.50;15.20;;;22.60;99.90;;;;;;5012697;28;20171;-68
2022/07/25 00:25:48;;;;;;;15.97;14.50;;;22.60;99.90;;;;;;5012678;28;20426;-67
2022/07/25 00:28:14;;;;;;;17.10;15.70;;;22.50;99.90;;;;;;5011662;28;20167;-66
2022/07/25 00:30:40;;;;;;;17.57;16.27;;;22.40;99.90;;;;;;5012247;28;20187;-68
2022/07/25 00:33:05;;;;;;;16.57;14.93;;;22.40;99.90;;;;;;5012515;28;20214;-67
2022/07/25 00:35:31;;;;;;;16.40;15.20;;;22.40;99.90;;;;;;5012475;28;20552;-68
2022/07/25 00:37:56;;;;;;;15.53;14.33;;;22.40;99.90;;;;;;5012462;28;20633;-68
2022/07/25 00:40:22;;;;;;;15.17;13.97;;;22.50;99.90;;;;;;5011734;28;20190;-67
2022/07/25 00:42:47;;;;;;;15.80;14.60;;;22.50;99.90;;;;;;4994756;28;20201;-67
2022/07/25 00:45:13;;;;;;;16.70;15.40;;;22.50;99.90;;;;;;5012439;28;20179;-68
2022/07/25 00:47:38;;;;;;;16.20;15.00;;;22.40;99.90;;;;;;5012325;28;20175;-68
2022/07/25 00:50:04;;;;;;;17.27;15.67;;;22.40;99.90;;;;;;5011624;28;20241;-67
2022/07/25 00:52:30;;;;;;;15.50;14.30;;;22.40;99.90;;;;;;5012230;28;20244;-68
2022/07/25 00:54:55;;;;;;;16.90;15.40;;;22.40;99.90;;;;;;5012292;28;20854;-68
2022/07/25 00:57:21;;;;;;;16.80;15.50;;;22.30;99.90;;;;;;5012103;28;20175;-68
2022/07/25 00:59:47;;;;;;;15.97;14.73;;;22.30;99.90;;;;;;5015364;28;20202;-67
2022/07/25 01:02:13;;;;;;;15.43;14.33;;;22.30;99.90;;;;;;5018756;28;20652;-67
2022/07/25 01:04:39;;;;;;;14.90;13.73;;;22.30;99.90;;;;;;5018715;28;20185;-68
2022/07/25 01:07:05;;;;;;;16.13;14.73;;;22.20;99.90;;;;;;5018707;28;20548;-68
2022/07/25 01:09:31;;;;;;;16.40;14.90;;;22.20;99.90;;;;;;5017905;28;20798;-68
2022/07/25 01:11:57;;;;;;;17.57;15.97;;;22.10;99.90;;;;;;5018621;28;20428;-68
2022/07/25 01:14:22;;;;;;;15.47;14.00;;;22.20;99.90;;;;;;5018581;28;20878;-67
2022/07/25 01:16:48;;;;;;;16.80;15.30;;;22.20;99.90;;;;;;5018645;28;20175;-68
2022/07/25 01:19:13;;;;;;;16.63;15.20;;;22.20;99.90;;;;;;5017932;28;20191;-67
2022/07/25 01:21:40;;;;;;;18.07;16.57;;;22.20;99.90;;;;;;5018673;28;20174;-68
2022/07/25 01:24:07;;;;;;;16.50;15.13;;;22.20;99.90;;;;;;5018616;28;20618;-68
2022/07/25 01:26:32;;;;;;;15.43;14.23;;;22.10;99.90;;;;;;5018547;28;20445;-68
2022/07/25 01:28:58;;;;;;;15.80;14.43;;;22.00;99.90;;;;;;5017541;28;20464;-67
2022/07/25 01:31:24;;;;;;;15.80;14.50;;;22.00;99.90;;;;;;5018454;28;20167;-68
2022/07/25 01:33:50;;;;;;;15.03;13.83;;;22.00;99.90;;;;;;5018216;28;20472;-67
2022/07/25 01:36:15;;;;;;;15.60;14.40;;;21.90;99.90;;;;;;5018466;28;20194;-68
2022/07/25 01:38:41;;;;;;;16.30;14.90;;;22.00;99.90;;;;;;5017563;28;20191;-68
2022/07/25 01:41:06;;;;;;;16.23;14.80;;;21.90;99.90;;;;;;5018387;28;20233;-67
2022/07/25 01:43:32;;;;;;;15.03;13.83;;;21.80;99.90;;;;;;5018257;28;20175;-68
2022/07/25 01:45:58;;;;;;;15.40;14.10;;;21.80;99.90;;;;;;5018307;28;20710;-68
2022/07/25 01:48:24;;;;;;;13.83;12.80;;;21.80;99.90;;;;;;5017511;28;20174;-67
2022/07/25 01:50:50;;;;;;;16.40;14.80;;;21.80;99.90;;;;;;5018427;28;20175;-68
2022/07/25 01:53:15;;;;;;;13.57;12.50;;;21.80;99.90;;;;;;5018204;28;20507;-67
2022/07/25 01:55:43;;;;;;;15.33;14.07;;;21.80;99.90;;;;;;5018215;28;20261;-68
2022/07/25 01:58:08;;;;;;;14.50;13.40;;;21.80;99.90;;;;;;5018143;28;20528;-66
2022/07/25 02:00:34;;;;;;;13.00;12.00;;;21.70;99.90;;;;;;5017654;28;20424;-68
2022/07/25 02:05:44;;;;;;;13.47;12.43;;;21.60;99.90;;;;;;5018370;28;20181;-68
2022/07/25 02:08:09;;;;;;;14.17;13.07;;;21.50;99.90;;;;;;5017687;28;20413;-66
2022/07/25 02:10:35;;;;;;;14.30;13.20;;;21.50;99.90;;;;;;5015479;28;20193;-67
2022/07/25 02:13:01;;;;;;;13.90;12.80;;;21.40;99.90;;;;;;4997402;28;20202;-68
2022/07/25 02:15:26;;;;;;;13.77;12.67;;;21.40;99.90;;;;;;5014994;28;20163;-68
2022/07/25 02:17:52;;;;;;;14.27;13.03;;;21.40;99.90;;;;;;4997334;28;20181;-66
2022/07/25 02:20:17;;;;;;;13.70;12.60;;;21.40;99.90;;;;;;5014143;28;20219;-67
2022/07/25 02:22:43;;;;;;;13.20;12.20;;;21.40;99.90;;;;;;5014949;28;20815;-68
2022/07/25 02:25:09;;;;;;;13.57;12.37;;;21.50;99.90;;;;;;5014750;28;20647;-67
2022/07/25 02:27:34;;;;;;;13.10;12.00;;;21.50;99.90;;;;;;4997166;28;20171;-67
2022/07/25 02:30:00;;;;;;;14.13;13.00;;;21.50;99.90;;;;;;5013815;28;20574;-68
2022/07/25 02:32:26;;;;;;;12.53;11.43;;;21.50;99.90;;;;;;5014688;28;20246;-68
2022/07/25 02:34:51;;;;;;;12.80;11.70;;;21.60;99.90;;;;;;5014589;28;20257;-67
2022/07/25 02:37:17;;;;;;;14.40;13.20;;;21.60;99.90;;;;;;5014639;28;20174;-67
2022/07/25 02:39:42;;;;;;;14.67;13.47;;;21.60;99.90;;;;;;5013689;28;20191;-67
2022/07/25 02:42:08;;;;;;;12.93;11.90;;;21.60;99.90;;;;;;5014431;28;20175;-67
2022/07/25 02:44:33;;;;;;;14.07;12.87;;;21.60;99.90;;;;;;5014483;28;20663;-69
2022/07/25 02:46:59;;;;;;;14.27;13.10;;;21.60;99.90;;;;;;5014513;28;20174;-68
2022/07/25 02:49:24;;;;;;;15.60;14.23;;;21.50;99.90;;;;;;5013553;28;20195;-67
2022/07/25 02:51:50;;;;;;;15.20;13.90;;;21.40;99.90;;;;;;5014385;28;20179;-67
2022/07/25 02:54:15;;;;;;;14.73;13.63;;;21.50;99.90;;;;;;5014116;28;20194;-67
2022/07/25 02:56:41;;;;;;;14.20;13.10;;;21.50;99.90;;;;;;5014308;28;20171;-67
2022/07/25 02:59:06;;;;;;;14.80;13.70;;;21.50;99.90;;;;;;5013495;28;20205;-68
2022/07/25 03:01:32;;;;;;;14.47;13.10;;;21.50;99.90;;;;;;5014157;28;20167;-67
2022/07/25 03:03:57;;;;;;;13.83;12.70;;;21.40;99.90;;;;;;5014045;28;20179;-67
2022/07/25 03:06:24;;;;;;;14.63;13.37;;;21.40;99.90;;;;;;5014015;28;20231;-69
2022/07/25 03:08:49;;;;;;;14.70;13.40;;;21.30;99.90;;;;;;5013216;28;20665;-68
2022/07/25 03:11:15;;;;;;;14.27;13.17;;;21.30;99.90;;;;;;5014070;28;20454;-68
2022/07/25 03:13:41;;;;;;;14.40;13.20;;;21.20;99.90;;;;;;5013792;28;20286;-68
2022/07/25 03:16:08;;;;;;;14.03;12.73;;;21.10;99.90;;;;;;5013863;28;20549;-67
2022/07/25 03:18:34;;;;;;;14.57;13.33;;;21.10;99.90;;;;;;5013048;28;20191;-68
2022/07/25 03:20:59;;;;;;;13.13;12.10;;;21.10;99.90;;;;;;5013701;28;20508;-67
2022/07/25 03:23:27;;;;;;;15.17;13.63;;;21.10;99.90;;;;;;5013423;28;20667;-68
2022/07/25 03:25:53;;;;;;;13.77;12.67;;;21.10;99.90;;;;;;5013668;28;20590;-67
2022/07/25 03:28:19;;;;;;;15.43;13.87;;;21.10;99.90;;;;;;5012640;28;20517;-67
2022/07/25 03:30:44;;;;;;;14.57;13.47;;;21.00;99.90;;;;;;5037930;22;20489;-66
2022/07/25 03:33:10;;;;;;;14.53;13.33;;;21.00;99.90;;;;;;5013422;28;20479;-66
2022/07/25 03:35:38;;;;;;;13.40;12.20;;;21.00;99.90;;;;;;5013578;28;20175;-66
2022/07/25 03:38:04;;;;;;;15.30;13.60;;;21.00;99.90;;;;;;5013534;28;20257;-66
2022/07/25 03:40:30;;;;;;;14.30;13.00;;;21.00;99.90;;;;;;5013051;28;20528;-66
2022/07/25 03:42:56;;;;;;;15.13;13.83;;;21.10;99.90;;;;;;5013440;28;20171;-66
2022/07/25 03:45:21;;;;;;;16.50;15.10;;;21.10;99.90;;;;;;5013323;28;20418;-66
2022/07/25 03:47:47;;;;;;;15.47;14.17;;;21.20;99.90;;;;;;5013266;28;20670;-66
2022/07/25 03:50:12;;;;;;;15.13;13.90;;;21.20;99.90;;;;;;5012485;28;20222;-66
2022/07/25 03:52:38;;;;;;;13.80;12.67;;;21.20;99.90;;;;;;5013515;28;20175;-66
2022/07/25 03:55:06;;;;;;;16.70;15.17;;;21.20;99.90;;;;;;5013231;28;20682;-66
2022/07/25 03:57:31;;;;;;;16.03;14.73;;;21.20;99.90;;;;;;5013072;28;20178;-66
2022/07/25 03:59:57;;;;;;;16.77;15.27;;;21.10;99.90;;;;;;5012234;28;20467;-66
2022/07/25 04:02:23;;;;;;;16.40;14.80;;;21.20;99.90;;;;;;4995500;28;20203;-66
2022/07/25 04:04:48;;;;;;;15.83;14.33;;;21.20;99.90;;;;;;5013033;28;20171;-66
2022/07/25 04:07:14;;;;;;;14.70;13.50;;;21.20;99.90;;;;;;5013014;28;20197;-66
2022/07/25 04:09:39;;;;;;;15.20;14.00;;;21.20;99.90;;;;;;5012186;28;20600;-66
2022/07/25 04:12:05;;;;;;;14.73;13.40;;;21.10;99.90;;;;;;5012821;28;20648;-66
2022/07/25 04:14:30;;;;;;;13.93;12.87;;;21.20;99.90;;;;;;5012916;28;20206;-66
2022/07/25 04:16:56;;;;;;;16.60;15.10;;;21.30;99.90;;;;;;5013192;28;20527;-66
2022/07/25 04:19:21;;;;;;;15.17;13.97;;;21.30;99.90;;;;;;5012060;28;20226;-66
2022/07/25 04:21:47;;;;;;;15.13;13.50;;;21.30;99.90;;;;;;5012937;28;20175;-66
2022/07/25 04:24:12;;;;;;;14.73;13.60;;;21.40;99.90;;;;;;5012830;28;20249;-66
2022/07/25 04:26:38;;;;;;;15.27;13.80;;;21.40;99.90;;;;;;5012557;28;20194;-66
2022/07/25 04:29:03;;;;;;;14.57;13.17;;;21.40;99.90;;;;;;5011691;28;20214;-66
2022/07/25 04:31:29;;;;;;;13.90;12.80;;;21.50;99.90;;;;;;5012590;28;20217;-66
2022/07/25 04:33:55;;;;;;;15.43;14.10;;;21.50;99.90;;;;;;5011834;28;20848;-66
2022/07/25 04:36:20;;;;;;;14.30;13.20;;;21.60;99.90;;;;;;5012392;28;20163;-66
2022/07/25 04:38:46;;;;;;;15.80;14.20;;;21.70;99.90;;;;;;5011503;28;20664;-66
2022/07/25 04:41:11;;;;;;;16.07;14.67;;;21.80;99.90;;;;;;5012068;28;20174;-66
2022/07/25 04:43:37;;;;;;;16.10;14.80;;;21.90;99.90;;;;;;5012189;28;20171;-66
2022/07/25 04:46:02;;;;;;;14.13;13.03;;;21.90;99.90;;;;;;5012160;28;20178;-66
2022/07/25 04:48:28;;;;;;;16.03;14.63;;;22.00;99.90;;;;;;5011594;28;20179;-66
2022/07/25 04:50:54;;;;;;;14.57;13.47;;;22.10;99.90;;;;;;5010988;28;20191;-66
2022/07/25 04:53:19;;;;;;;14.60;12.27;;;22.20;99.90;;;;;;5011946;28;20206;-66
2022/07/25 04:55:45;;;;;;;14.30;13.00;;;22.40;99.90;;;;;;5012106;28;20167;-66
2022/07/25 04:58:10;;;;;;;14.03;13.00;;;22.50;99.90;;;;;;5011539;28;20171;-66
2022/07/25 05:00:36;;;;;;;15.07;13.77;;;22.60;99.90;;;;;;5011688;28;20202;-66
2022/07/25 05:03:01;;;;;;;15.33;13.80;;;22.70;99.90;;;;;;5012207;28;20171;-66
2022/07/25 05:05:27;;;;;;;15.80;14.50;;;22.80;99.90;;;;;;5011961;28;20213;-66
2022/07/25 05:07:58;;;;;;;16.17;14.60;;;22.90;99.90;;;;;;5011876;28;20253;-66
2022/07/25 05:10:25;;;;;;;16.00;14.50;;;23.00;99.90;;;;;;5011116;28;20246;-66
2022/07/25 05:12:50;;;;;;;18.40;16.20;;;23.00;99.90;;;;;;5011753;28;20866;-66
2022/07/25 05:15:16;;;;;;;15.37;14.00;;;23.10;99.90;;;;;;5011786;28;20442;-66
2022/07/25 05:17:42;;;;;;;16.67;15.07;;;23.30;99.90;;;;;;5011797;28;20198;-66
2022/07/25 05:20:08;;;;;;;14.67;13.50;;;23.50;99.90;;;;;;5010983;28;20194;-66
2022/07/25 05:22:33;;;;;;;15.57;14.30;;;23.50;99.90;;;;;;5011923;28;20171;-66
2022/07/25 05:25:01;;;;;;;15.10;13.83;;;23.60;99.90;;;;;;5011743;28;20973;-66
2022/07/25 05:27:27;;;;;;;15.20;13.80;;;23.70;99.90;;;;;;5011712;28;20262;-66
2022/07/25 05:29:53;;;;;;;15.13;13.90;;;23.80;99.90;;;;;;5010818;28;20561;-66
2022/07/25 05:32:18;;;;;;;14.97;13.83;;;23.90;99.90;;;;;;5011467;28;20512;-66
2022/07/25 05:34:44;;;;;;;14.40;13.00;;;24.00;99.90;;;;;;5011735;28;20205;-66
2022/07/25 05:37:10;;;;;;;15.07;13.73;;;24.00;99.90;;;;;;5011745;28;20163;-66
2022/07/25 05:39:38;;;;;;;15.20;14.00;;;24.20;99.90;;;;;;5011005;28;20191;-66
2022/07/25 05:42:04;;;;;;;15.60;14.20;;;24.30;99.90;;;;;;5011684;28;20186;-66
2022/07/25 05:44:29;;;;;;;15.67;14.00;;;24.40;99.90;;;;;;5011726;28;20424;-66
2022/07/25 05:46:55;;;;;;;14.70;13.50;;;24.50;99.90;;;;;;5015410;28;20218;-66
2022/07/25 05:49:20;;;;;;;15.23;13.93;;;24.50;99.90;;;;;;5014698;28;20194;-66
2022/07/25 05:51:46;;;;;;;14.33;12.80;;;24.60;99.90;;;;;;5014538;28;20179;-66
2022/07/25 05:54:11;;;;;;;14.73;13.33;;;24.80;99.90;;;;;;5015290;28;20592;-66
2022/07/25 05:56:37;;;;;;;13.87;12.60;;;24.90;99.90;;;;;;5015295;28;20541;-66
2022/07/25 05:59:02;;;;;;;15.43;14.27;;;24.90;99.90;;;;;;5014597;28;20190;-66
2022/07/25 06:01:28;;;;;;;14.57;13.37;;;25.10;99.90;;;;;;5015688;28;20705;-66
2022/07/25 06:03:53;;;;;;;13.97;12.63;;;25.50;99.90;;;;;;5015190;28;20182;-66
2022/07/25 06:06:19;;;;;;;15.20;13.80;;;25.80;99.90;;;;;;5015031;28;20182;-66
2022/07/25 06:08:45;;;;;;;14.33;13.33;;;26.00;99.90;;;;;;5014001;28;20226;-66
2022/07/25 06:11:10;;;;;;;14.13;12.73;;;26.30;99.90;;;;;;5015109;28;20253;-67
2022/07/25 06:13:36;;;;;;;13.00;12.00;;;26.40;99.90;;;;;;5014777;28;20209;-67
2022/07/25 06:16:01;;;;;;;13.77;12.77;;;26.50;99.90;;;;;;5014833;28;20175;-67
2022/07/25 06:18:27;;;;;;;14.13;12.60;;;26.70;99.90;;;;;;5014011;28;20687;-66
2022/07/25 06:20:53;;;;;;;14.30;13.10;;;26.80;99.90;;;;;;5014582;28;20191;-67
2022/07/25 06:23:19;;;;;;;15.10;13.90;;;26.70;99.90;;;;;;5014450;28;20440;-67
2022/07/25 06:25:45;;;;;;;13.07;11.97;;;26.70;99.90;;;;;;5014553;28;20195;-67
2022/07/25 06:28:13;;;;;;;14.50;13.23;;;26.90;99.90;;;;;;5014063;28;20500;-67
2022/07/25 06:30:40;;;;;;;13.80;12.47;;;26.90;99.90;;;;;;5014335;28;20457;-67
2022/07/25 06:33:05;;;;;;;14.13;12.97;;;26.90;99.90;;;;;;5014382;28;20460;-67
2022/07/25 06:35:31;;;;;;;13.17;12.27;;;27.10;99.90;;;;;;5014414;28;20410;-67
2022/07/25 06:37:56;;;;;;;14.93;12.73;;;27.30;99.90;;;;;;5014200;28;20163;-67
2022/07/25 06:40:22;;;;;;;13.90;12.80;;;27.40;99.90;;;;;;5013590;28;20548;-67
2022/07/25 06:42:47;;;;;;;14.53;13.17;;;27.70;99.90;;;;;;5014257;28;20197;-67
2022/07/25 06:45:14;;;;;;;13.13;12.03;;;27.80;99.90;;;;;;5014297;28;20301;-67
2022/07/25 06:47:41;;;;;;;13.23;12.17;;;27.80;98.40;;;;;;5014223;28;20163;-67
2022/07/25 06:50:09;;;;;;;15.30;14.00;;;27.80;97.70;;;;;;5013329;28;20528;-66
2022/07/25 06:52:35;;;;;;;12.93;11.97;;;27.70;98.00;;;;;;5014018;28;20414;-67
2022/07/25 06:55:04;;;;;;;13.57;12.63;;;27.80;97.80;;;;;;5014045;28;20453;-67
2022/07/25 06:57:30;;;;;;;13.40;12.30;;;27.70;97.50;;;;;;5013300;28;20658;-67
2022/07/25 06:59:55;;;;;;;13.93;12.73;;;27.80;97.60;;;;;;5013221;28;20525;-66
2022/07/25 07:02:21;;;;;;;13.47;12.47;;;28.10;97.30;;;;;;5013956;28;20167;-67
2022/07/25 07:04:46;;;;;;;13.23;12.13;;;28.10;96.80;;;;;;5013830;28;20225;-67
2022/07/25 07:07:12;;;;;;;14.10;12.90;;;28.10;97.00;;;;;;5013769;28;20166;-67
2022/07/25 07:09:38;;;;;;;14.10;13.10;;;28.00;96.80;;;;;;5012969;28;20214;-66
2022/07/25 07:12:04;;;;;;;14.47;13.37;;;28.00;97.40;;;;;;5013720;28;20257;-67
2022/07/25 07:14:29;;;;;;;14.37;13.37;;;28.20;97.40;;;;;;5013711;28;20230;-67
2022/07/25 07:16:55;;;;;;;15.00;13.90;;;28.40;97.30;;;;;;5013911;28;20225;-67
2022/07/25 07:19:20;;;;;;;14.03;12.93;;;28.50;97.40;;;;;;5013114;28;20245;-66
2022/07/25 07:21:46;;;;;;;13.77;12.57;;;28.90;97.30;;;;;;5013727;28;20198;-66
2022/07/25 07:24:11;;;;;;;14.47;13.17;;;29.00;96.90;;;;;;5013786;28;20193;-66
2022/07/25 07:26:37;;;;;;;13.57;12.47;;;29.10;96.80;;;;;;5013736;28;20171;-67
2022/07/25 07:29:03;;;;;;;15.83;14.73;;;29.30;96.80;;;;;;5012786;28;20257;-66
2022/07/25 07:31:29;;;;;;;15.17;13.80;;;29.50;96.80;;;;;;5013644;28;20265;-67
2022/07/25 07:33:55;;;;;;;14.60;13.40;;;29.90;96.10;;;;;;5013532;28;20194;-67
2022/07/25 07:36:21;;;;;;;17.00;15.67;;;30.00;95.40;;;;;;5013335;28;20254;-67
2022/07/25 07:38:47;;;;;;;15.10;13.87;;;30.10;95.30;;;;;;5012835;28;20911;-66
2022/07/25 07:41:13;;;;;;;16.30;14.87;;;30.10;95.00;;;;;;5013307;28;20445;-66
2022/07/25 07:43:39;;;;;;;14.50;13.40;;;29.90;94.90;;;;;;5013227;28;20422;-67
2022/07/25 07:46:04;;;;;;;15.30;14.30;;;29.90;94.80;;;;;;5013111;28;20428;-67
2022/07/25 07:48:31;;;;;;;14.67;13.67;;;30.20;94.90;;;;;;5012412;28;20179;-67
2022/07/25 07:50:58;;;;;;;16.73;14.93;;;30.70;94.50;;;;;;5012834;28;20210;-67
2022/07/25 07:56:08;;;;;;;15.17;14.13;;;30.90;93.30;;;;;;5012990;28;20456;-67
2022/07/25 07:58:34;;;;;;;16.60;14.77;;;31.30;92.90;;;;;;5012226;28;20452;-67
2022/07/25 08:00:59;;;;;;;15.20;14.20;;;31.70;91.90;;;;;;5012850;28;20170;-67
2022/07/25 08:03:25;;;;;;;13.43;12.23;;;31.70;91.30;;;;;;5012779;28;20178;-67
2022/07/25 08:05:50;;;;;;;14.40;13.27;;;31.70;91.20;;;;;;5012768;28;20175;-67
2022/07/25 08:08:16;;;;;;;15.00;13.90;;;31.90;88.30;;;;;;5011454;28;20204;-67
2022/07/25 08:10:44;;;;;;;13.73;12.70;;;32.00;87.50;;;;;;5012340;28;20214;-67
2022/07/25 08:13:15;;;;;;;14.37;13.27;;;32.30;86.60;;;;;;5012637;28;20186;-67
2022/07/25 08:15:43;;;;;;;13.77;12.77;;;32.30;86.00;;;;;;5012475;28;20437;-67
2022/07/25 08:18:08;;;;;;;13.53;12.63;;;32.60;85.80;;;;;;5012285;28;20426;-67
2022/07/25 08:20:34;;;;;;;13.60;12.70;;;32.90;82.90;;;;;;5011898;28;20442;-67
2022/07/25 08:23:00;;;;;;;13.80;12.80;;;33.30;80.30;;;;;;5012457;28;20186;-67
2022/07/25 08:25:26;;;;;;;13.40;12.50;;;33.00;77.40;;;;;;5012371;28;20177;-67
2022/07/25 08:27:52;;;;;;;13.47;12.50;;;33.00;76.50;;;;;;4994649;28;20317;-66
2022/07/25 08:30:18;;;;;;;12.90;11.90;;;33.10;75.00;;;;;;5011496;28;20555;-67
2022/07/25 08:33:04;;;;;;;13.13;12.20;;;33.10;74.40;;;;;;5012292;28;20175;-67
2022/07/25 08:35:31;;;;;;;13.77;12.77;;;33.20;73.50;;;;;;5012326;28;20449;-66
2022/07/25 08:37:57;;;;;;;13.70;12.50;;;33.20;72.00;;;;;;5012226;28;20825;-67
2022/07/25 08:40:25;;;;;;;12.83;11.90;;;33.60;71.90;;;;;;5011408;28;20430;-67
2022/07/25 08:42:51;;;;;;;12.37;11.57;;;34.10;71.00;;;;;;5012082;28;20932;-67
2022/07/25 08:45:18;;;;;;;11.40;10.60;;;34.40;68.60;;;;;;5012344;28;20437;-67
2022/07/25 08:47:49;;;;;;;12.57;11.77;;;34.80;67.40;;;;;;5012402;28;20505;-67
2022/07/25 08:50:16;;;;;;;12.03;11.10;;;35.20;65.30;;;;;;5011582;28;20806;-66
2022/07/25 08:52:44;;;;;;;12.90;11.77;;;35.10;62.50;;;;;;5012352;28;20424;-67
2022/07/25 08:55:15;;;;;;;12.57;11.67;;;35.00;61.60;;;;;;5012233;28;20982;-67
2022/07/25 08:57:45;;;;;;;13.47;12.50;;;35.00;61.10;;;;;;5012203;28;20414;-67
2022/07/25 09:00:14;;;;;;;13.20;12.20;;;35.30;61.20;;;;;;5011595;28;20444;-66
2022/07/25 09:02:40;;;;;;;11.80;11.00;;;35.40;61.90;;;;;;4994633;28;20800;-67
2022/07/25 09:05:06;;;;;;;12.30;11.40;;;35.70;61.20;;;;;;5012024;28;20417;-67
2022/07/25 09:07:39;;;;;;;14.37;13.47;;;35.90;60.00;;;;;;5011973;28;20491;-67
2022/07/25 09:10:24;;;;;;;11.80;11.00;;;36.00;58.90;;;;;;5011155;28;20441;-67
2022/07/25 09:12:59;;;;;;;13.77;12.87;;;36.30;57.60;;;;;;5011800;28;20497;-67
2022/07/25 09:15:30;;;;;;;13.13;12.23;;;36.50;56.50;;;;;;5011949;28;20425;-67
2022/07/25 09:18:01;;;;;;;12.60;11.47;;;36.80;56.10;;;;;;5011753;28;20422;-67
2022/07/25 09:20:59;;;;;;;12.03;11.23;;;37.20;55.50;;;;;;5012335;28;20484;-67
2022/07/25 09:23:33;;;;;;;12.93;12.00;;;37.40;54.60;;;;;;5004514;28;20509;-67
2022/07/25 09:26:07;;;;;;;11.13;10.43;;;37.30;53.60;;;;;;5015749;28;20421;-67
2022/07/25 09:28:54;;;;;;;12.97;11.97;;;37.30;52.50;;;;;;5015021;28;20860;-67
2022/07/25 09:31:19;;;;;;;12.20;11.00;;;37.30;52.00;;;;;;5016222;28;20429;-66
2022/07/25 09:33:47;;;;;;;12.50;11.47;;;37.00;53.10;;;;;;5015519;28;20829;-66
2022/07/25 09:36:14;;;;;;;12.70;11.80;;;36.80;52.40;;;;;;5015450;28;20266;-66
2022/07/25 09:38:53;;;;;;;12.27;11.33;;;36.70;52.50;;;;;;5014754;28;20421;-66
2022/07/25 09:41:19;;;;;;;13.90;12.90;;;36.90;53.20;;;;;;5015364;28;20870;-67
2022/07/25 09:43:45;;;;;;;13.40;12.50;;;37.40;52.10;;;;;;5015399;28;20450;-66
2022/07/25 09:46:11;;;;;;;12.73;11.83;;;37.60;51.10;;;;;;5015314;28;20198;-66
2022/07/25 09:48:39;;;;;;;12.87;12.00;;;38.10;50.90;;;;;;5014422;28;20187;-66
2022/07/25 09:51:05;;;;;;;13.17;11.90;;;38.20;50.20;;;;;;5015247;28;20421;-66
2022/07/25 09:53:32;;;;;;;12.97;11.87;;;38.00;49.40;;;;;;5015198;28;20457;-66
2022/07/25 09:55:58;;;;;;;14.33;13.33;;;37.70;50.00;;;;;;5015054;28;20433;-66
2022/07/25 09:58:25;;;;;;;13.53;12.50;;;37.90;50.40;;;;;;5014377;28;20548;-66
2022/07/25 10:00:59;;;;;;;11.73;10.83;;;37.80;49.50;;;;;;5014931;28;20452;-66
2022/07/25 10:03:36;;;;;;;13.30;12.40;;;37.90;49.10;;;;;;5014965;28;20469;-66
2022/07/25 10:06:38;;;;;;;13.33;12.30;;;38.80;49.00;;;;;;5014818;28;20421;-66
2022/07/25 10:09:10;;;;;;;12.10;10.30;;;39.90;47.20;;;;;;5014101;28;20977;-66
2022/07/25 10:11:36;;;;;;;11.80;11.10;;;39.90;44.70;;;;;;5014820;28;20414;-66
2022/07/25 10:14:11;;;;;;;11.10;10.20;;;39.80;45.10;;;;;;5014710;28;20453;-67
2022/07/25 10:16:46;;;;;;;10.80;10.00;;;40.00;44.00;;;;;;5014856;28;20166;-67
2022/07/25 10:19:12;;;;;;;11.23;10.10;;;40.30;42.70;;;;;;5014021;28;20444;-67
2022/07/25 10:21:38;;;;;;;11.93;11.03;;;41.70;41.70;;;;;;5014998;28;20421;-67
2022/07/25 10:24:07;;;;;;;9.80;9.20;;;42.30;40.00;;;;;;5014742;28;20533;-67
2022/07/25 10:26:40;;;;;;;10.07;9.47;;;41.90;39.70;;;;;;5014741;28;20175;-67
2022/07/25 10:29:09;;;;;;;9.20;8.50;;;41.80;39.40;;;;;;5013766;28;20810;-67
2022/07/25 10:31:37;;;;;;;8.13;7.53;;;43.00;38.50;;;;;;4995865;28;20429;-67
2022/07/25 10:34:08;;;;;;;8.13;7.53;;;43.20;36.00;;;;;;5014418;28;20472;-67
2022/07/25 10:36:49;;;;;;;7.40;6.90;;;43.50;34.60;;;;;;5014308;28;20784;-67
2022/07/25 10:39:17;;;;;;;7.50;7.00;;;43.10;35.00;;;;;;5013543;28;20438;-67
2022/07/25 10:41:52;;;;;;;7.73;7.33;;;43.20;34.30;;;;;;5014052;28;20844;-67
2022/07/25 10:44:18;;;;;;;8.33;7.70;;;43.30;33.50;;;;;;5014211;28;20780;-67
2022/07/25 10:46:44;;;;;;;7.60;7.20;;;44.10;32.60;;;;;;5014098;28;20438;-66
2022/07/25 10:49:26;;;;;;;7.60;7.20;;;44.10;32.40;;;;;;5013323;28;20609;-67
2022/07/25 10:51:56;;;;;;;6.23;5.83;;;43.40;32.40;;;;;;5014071;28;20553;-67
2022/07/25 10:54:22;;;;;;;6.57;6.27;;;44.70;31.50;;;;;;5013995;28;20469;-67
2022/07/25 10:56:56;;;;;;;6.20;5.90;;;44.70;31.10;;;;;;5013966;28;20422;-67
2022/07/25 10:59:38;;;;;;;6.63;6.33;;;44.50;30.60;;;;;;5013161;28;20211;-67
2022/07/25 11:02:08;;;;;;;6.97;6.40;;;44.50;30.50;;;;;;5013869;28;20421;-66
2022/07/25 11:04:34;;;;;;;6.57;6.23;;;43.80;30.60;;;;;;5013743;28;20422;-67
2022/07/25 11:07:10;;;;;;;6.30;5.90;;;42.70;31.10;;;;;;5013753;28;20418;-67
2022/07/25 11:09:36;;;;;;;8.63;6.50;;;43.70;31.00;;;;;;5012865;28;20444;-67
2022/07/25 11:12:02;;;;;;;6.80;6.40;;;44.20;30.50;;;;;;5013618;28;20430;-67
2022/07/25 11:14:38;;;;;;;6.60;6.30;;;45.20;30.30;;;;;;5013498;28;20469;-67
2022/07/25 11:17:11;;;;;;;6.10;5.80;;;45.30;29.50;;;;;;4995999;28;20525;-67
2022/07/25 11:19:37;;;;;;;7.10;6.60;;;44.70;29.60;;;;;;4995003;28;20445;-67
2022/07/25 11:22:03;;;;;;;6.80;6.40;;;44.00;29.70;;;;;;5013511;28;20444;-66
2022/07/25 11:24:41;;;;;;;6.93;6.53;;;43.50;30.00;;;;;;5013453;28;20186;-67
2022/07/25 11:27:08;;;;;;;7.17;6.77;;;44.10;30.00;;;;;;5013338;28;20445;-67
2022/07/25 11:29:36;;;;;;;7.60;7.10;;;44.70;29.40;;;;;;5012389;28;20478;-67
2022/07/25 11:32:08;;;;;;;6.90;6.50;;;46.00;29.20;;;;;;5013254;28;20729;-67
2022/07/25 11:34:35;;;;;;;6.97;6.60;;;47.40;28.30;;;;;;5013158;28;20454;-66
2022/07/25 11:37:04;;;;;;;5.93;5.63;;;47.20;27.60;;;;;;5013113;28;20425;-67
2022/07/25 11:39:34;;;;;;;6.53;6.03;;;45.50;27.90;;;;;;5012437;28;20775;-67
2022/07/25 11:42:15;;;;;;;6.40;6.10;;;45.80;28.10;;;;;;5013054;28;20751;-67
2022/07/25 11:44:49;;;;;;;6.07;5.67;;;45.60;27.60;;;;;;5012961;28;20449;-66
2022/07/25 11:47:41;;;;;;;7.13;6.37;;;45.70;27.40;;;;;;5013360;28;20512;-66
2022/07/25 11:50:09;;;;;;;6.37;5.97;;;45.30;27.40;;;;;;5008443;28;20465;-66
2022/07/25 11:52:36;;;;;;;6.23;5.90;;;45.40;27.90;;;;;;5013057;28;20422;-66
2022/07/25 11:55:09;;;;;;;5.90;5.60;;;46.60;27.70;;;;;;5013070;28;20466;-67
2022/07/25 11:57:40;;;;;;;6.50;6.10;;;46.50;27.10;;;;;;5013208;28;20418;-67
2022/07/25 12:00:24;;;;;;;6.40;6.00;;;46.00;27.60;;;;;;5012115;28;20890;-67
2022/07/25 12:02:49;;;;;;;6.17;5.87;;;44.80;27.00;;;;;;5012962;28;20426;-66
2022/07/25 12:05:18;;;;;;;6.80;6.40;;;44.10;27.90;;;;;;5012612;28;20509;-67
2022/07/25 12:07:54;;;;;;;7.17;6.77;;;42.90;28.60;;;;;;5012661;28;20171;-66
2022/07/25 12:10:30;;;;;;;7.20;6.60;;;42.00;29.50;;;;;;5011839;28;20481;-66
2022/07/25 12:12:57;;;;;;;6.80;6.40;;;41.60;29.20;;;;;;5012480;28;20467;-66
2022/07/25 12:15:32;;;;;;;6.10;5.70;;;40.90;29.50;;;;;;5012523;28;20418;-66
2022/07/25 12:17:58;;;;;;;6.20;5.70;;;40.40;30.20;;;;;;5012463;28;20572;-66
2022/07/25 12:20:27;;;;;;;7.30;6.90;;;39.30;30.70;;;;;;5011608;28;20964;-67
2022/07/25 12:22:55;;;;;;;7.70;7.10;;;39.70;31.00;;;;;;5012576;28;20422;-67
2022/07/25 12:25:21;;;;;;;7.60;7.10;;;41.20;30.00;;;;;;5012362;28;20425;-67
2022/07/25 12:27:47;;;;;;;7.70;7.20;;;41.10;30.10;;;;;;5012306;28;20513;-66
2022/07/25 12:30:13;;;;;;;6.97;6.47;;;40.70;30.80;;;;;;5011329;28;20216;-67
2022/07/25 12:32:39;;;;;;;7.27;6.87;;;42.20;30.00;;;;;;5012231;28;20421;-66
2022/07/25 12:35:07;;;;;;;7.13;6.73;;;42.30;29.60;;;;;;5012094;28;20462;-67
2022/07/25 12:37:32;;;;;;;7.60;7.20;;;41.70;29.80;;;;;;5012089;28;20791;-67